sensor_id;sensor_type;location;lat;lon;timestamp;pressure;altitude;pressure_sealevel;temperature;humidity
10474;BME280;5284;50.446;7.904;2022-07-06T00:03:44;99192.16;;;15.81;78.78
10474;BME280;5284;50.446;7.904;2022-07-06T00:08:54;99193.22;;;15.71;78.23
10474;BME280;5284;50.446;7.904;2022-07-06T00:13:57;99194.66;;;15.65;78.91
10474;BME280;5284;50.446;7.904;2022-07-06T00:19:00;99192.69;;;15.58;79.43
10474;BME280;5284;50.446;7.904;2022-07-06T00:24:05;99185.50;;;15.49;79.74
10474;BME280;5284;50.446;7.904;2022-07-06T00:29:07;99188.06;;;15.41;80.35
10474;BME280;5284;50.446;7.904;2022-07-06T00:34:10;99191.47;;;15.33;79.74
10474;BME280;5284;50.446;7.904;2022-07-06T00:39:16;99183.53;;;15.23;80.97
10474;BME280;5284;50.446;7.904;2022-07-06T00:44:20;99187.06;;;15.14;81.47
10474;BME280;5284;50.446;7.904;2022-07-06T00:49:23;99187.78;;;15.06;82.39
10474;BME280;5284;50.446;7.904;2022-07-06T00:54:45;99184.69;;;15.01;81.88
10474;BME280;5284;50.446;7.904;2022-07-06T00:59:49;99190.19;;;14.90;83.23
10474;BME280;5284;50.446;7.904;2022-07-06T01:04:52;99193.72;;;14.81;84.20
10474;BME280;5284;50.446;7.904;2022-07-06T01:09:56;99192.59;;;14.74;85.39
10474;BME280;5284;50.446;7.904;2022-07-06T01:14:59;99193.28;;;14.67;86.55
10474;BME280;5284;50.446;7.904;2022-07-06T01:20:10;99193.28;;;14.57;87.56
10474;BME280;5284;50.446;7.904;2022-07-06T01:25:14;99186.34;;;14.45;89.24
10474;BME280;5284;50.446;7.904;2022-07-06T01:30:19;99187.44;;;14.43;89.46
10474;BME280;5284;50.446;7.904;2022-07-06T01:35:24;99187.19;;;14.36;91.02
10474;BME280;5284;50.446;7.904;2022-07-06T01:40:27;99179.81;;;14.29;91.19
10474;BME280;5284;50.446;7.904;2022-07-06T01:45:31;99181.91;;;14.25;92.63
10474;BME280;5284;50.446;7.904;2022-07-06T01:50:36;99188.41;;;14.23;92.71
10474;BME280;5284;50.446;7.904;2022-07-06T01:55:39;99180.75;;;14.18;93.86
10474;BME280;5284;50.446;7.904;2022-07-06T02:00:42;99173.94;;;14.14;93.91
10474;BME280;5284;50.446;7.904;2022-07-06T02:05:46;99180.41;;;14.12;94.71
10474;BME280;5284;50.446;7.904;2022-07-06T02:10:49;99184.38;;;14.08;95.00
10474;BME280;5284;50.446;7.904;2022-07-06T02:15:53;99187.88;;;13.99;96.65
10474;BME280;5284;50.446;7.904;2022-07-06T02:20:57;99194.63;;;13.93;94.93
10474;BME280;5284;50.446;7.904;2022-07-06T02:26:01;99190.22;;;13.83;95.37
10474;BME280;5284;50.446;7.904;2022-07-06T02:31:05;99200.19;;;13.72;97.67
10474;BME280;5284;50.446;7.904;2022-07-06T02:36:10;99202.28;;;13.68;97.07
10474;BME280;5284;50.446;7.904;2022-07-06T02:41:13;99197.72;;;13.59;98.41
10474;BME280;5284;50.446;7.904;2022-07-06T02:46:16;99203.47;;;13.55;98.68
10474;BME280;5284;50.446;7.904;2022-07-06T02:51:22;99206.94;;;13.46;98.53
10474;BME280;5284;50.446;7.904;2022-07-06T02:56:25;99204.09;;;13.38;99.17
10474;BME280;5284;50.446;7.904;2022-07-06T03:01:29;99206.69;;;13.28;99.82
10474;BME280;5284;50.446;7.904;2022-07-06T03:06:34;99212.31;;;13.25;100.00
10474;BME280;5284;50.446;7.904;2022-07-06T03:11:37;99203.50;;;13.14;100.00
10474;BME280;5284;50.446;7.904;2022-07-06T03:16:40;99210.94;;;13.10;99.56
10474;BME280;5284;50.446;7.904;2022-07-06T03:21:52;99217.22;;;13.00;100.00
10474;BME280;5284;50.446;7.904;2022-07-06T03:26:55;99223.19;;;12.92;99.89
10474;BME280;5284;50.446;7.904;2022-07-06T03:31:58;99221.25;;;12.83;100.00
10474;BME280;5284;50.446;7.904;2022-07-06T03:37:03;99229.16;;;12.85;100.00
10474;BME280;5284;50.446;7.904;2022-07-06T03:42:08;99238.66;;;12.78;100.00
10474;BME280;5284;50.446;7.904;2022-07-06T03:47:12;99233.09;;;12.70;100.00
10474;BME280;5284;50.446;7.904;2022-07-06T03:52:17;99221.31;;;12.61;100.00
10474;BME280;5284;50.446;7.904;2022-07-06T03:57:25;99240.41;;;12.57;100.00
10474;BME280;5284;50.446;7.904;2022-07-06T04:02:31;99237.88;;;12.55;100.00
10474;BME280;5284;50.446;7.904;2022-07-06T04:07:35;99244.59;;;12.50;100.00
10474;BME280;5284;50.446;7.904;2022-07-06T04:12:42;99245.81;;;12.46;100.00
10474;BME280;5284;50.446;7.904;2022-07-06T04:17:45;99248.13;;;12.39;100.00
10474;BME280;5284;50.446;7.904;2022-07-06T04:23:03;99253.13;;;12.33;100.00
10474;BME280;5284;50.446;7.904;2022-07-06T04:28:06;99256.91;;;12.30;100.00
10474;BME280;5284;50.446;7.904;2022-07-06T04:33:10;99256.06;;;12.30;100.00
10474;BME280;5284;50.446;7.904;2022-07-06T04:38:15;99257.75;;;12.31;100.00
10474;BME280;5284;50.446;7.904;2022-07-06T04:43:21;99256.41;;;12.36;100.00
10474;BME280;5284;50.446;7.904;2022-07-06T04:48:25;99256.75;;;12.43;100.00
10474;BME280;5284;50.446;7.904;2022-07-06T04:53:31;99262.47;;;12.49;100.00
10474;BME280;5284;50.446;7.904;2022-07-06T04:58:34;99263.53;;;12.58;100.00
10474;BME280;5284;50.446;7.904;2022-07-06T05:03:37;99265.00;;;12.62;100.00
10474;BME280;5284;50.446;7.904;2022-07-06T05:08:45;99267.91;;;12.70;100.00
10474;BME280;5284;50.446;7.904;2022-07-06T05:13:48;99270.28;;;12.84;100.00
10474;BME280;5284;50.446;7.904;2022-07-06T05:18:51;99265.91;;;12.94;100.00
10474;BME280;5284;50.446;7.904;2022-07-06T05:23:55;99270.81;;;13.09;98.67
10474;BME280;5284;50.446;7.904;2022-07-06T05:28:59;99279.53;;;13.22;95.62
10474;BME280;5284;50.446;7.904;2022-07-06T05:34:02;99281.16;;;13.45;94.84
10474;BME280;5284;50.446;7.904;2022-07-06T05:39:06;99281.53;;;13.61;93.94
10474;BME280;5284;50.446;7.904;2022-07-06T05:44:09;99290.16;;;13.85;91.61
10474;BME280;5284;50.446;7.904;2022-07-06T05:49:12;99293.63;;;14.06;90.70
10474;BME280;5284;50.446;7.904;2022-07-06T05:54:35;99299.56;;;14.30;88.61
10474;BME280;5284;50.446;7.904;2022-07-06T05:59:39;99300.94;;;14.54;87.08
10474;BME280;5284;50.446;7.904;2022-07-06T06:04:41;99298.72;;;14.69;86.05
10474;BME280;5284;50.446;7.904;2022-07-06T06:09:46;99296.09;;;14.97;85.04
10474;BME280;5284;50.446;7.904;2022-07-06T06:14:49;99299.66;;;15.17;83.28
10474;BME280;5284;50.446;7.904;2022-07-06T06:19:51;99296.44;;;15.51;80.81
10474;BME280;5284;50.446;7.904;2022-07-06T06:24:56;99297.81;;;15.74;80.30
10474;BME280;5284;50.446;7.904;2022-07-06T06:29:59;99303.72;;;16.42;77.92
10474;BME280;5284;50.446;7.904;2022-07-06T06:35:02;99294.09;;;16.67;75.45
10474;BME280;5284;50.446;7.904;2022-07-06T06:40:07;99289.22;;;17.06;73.47
10474;BME280;5284;50.446;7.904;2022-07-06T06:45:10;99304.59;;;17.31;70.49
10474;BME280;5284;50.446;7.904;2022-07-06T06:50:13;99308.38;;;17.03;71.60
10474;BME280;5284;50.446;7.904;2022-07-06T06:55:17;99313.38;;;16.72;71.28
10474;BME280;5284;50.446;7.904;2022-07-06T07:00:22;99315.13;;;16.90;71.25
10474;BME280;5284;50.446;7.904;2022-07-06T07:05:25;99322.81;;;16.58;73.21
10474;BME280;5284;50.446;7.904;2022-07-06T07:10:30;99333.00;;;16.18;74.00
10474;BME280;5284;50.446;7.904;2022-07-06T07:15:32;99336.34;;;16.30;72.22
10474;BME280;5284;50.446;7.904;2022-07-06T07:20:35;99333.94;;;16.73;70.09
10474;BME280;5284;50.446;7.904;2022-07-06T07:25:41;99334.72;;;17.54;66.89
10474;BME280;5284;50.446;7.904;2022-07-06T07:30:44;99337.63;;;16.72;67.02
10474;BME280;5284;50.446;7.904;2022-07-06T07:35:46;99346.34;;;16.56;68.68
10474;BME280;5284;50.446;7.904;2022-07-06T07:40:52;99343.78;;;16.55;69.52
10474;BME280;5284;50.446;7.904;2022-07-06T07:45:55;99339.22;;;16.91;67.27
10474;BME280;5284;50.446;7.904;2022-07-06T07:50:58;99338.47;;;16.99;67.58
10474;BME280;5284;50.446;7.904;2022-07-06T07:56:03;99337.84;;;17.05;67.52
10474;BME280;5284;50.446;7.904;2022-07-06T08:01:06;99331.84;;;17.55;64.50
10474;BME280;5284;50.446;7.904;2022-07-06T08:06:09;99322.34;;;17.86;61.10
10474;BME280;5284;50.446;7.904;2022-07-06T08:11:13;99331.59;;;17.66;61.57
10474;BME280;5284;50.446;7.904;2022-07-06T08:16:20;99320.38;;;18.39;60.27
10474;BME280;5284;50.446;7.904;2022-07-06T08:21:23;99317.31;;;19.09;59.41
10474;BME280;5284;50.446;7.904;2022-07-06T08:26:30;99322.19;;;19.79;55.91
10474;BME280;5284;50.446;7.904;2022-07-06T08:31:35;99323.38;;;19.92;55.17
10474;BME280;5284;50.446;7.904;2022-07-06T08:36:58;99333.78;;;19.23;57.93
10474;BME280;5284;50.446;7.904;2022-07-06T08:42:03;99319.47;;;19.55;58.12
10474;BME280;5284;50.446;7.904;2022-07-06T08:47:06;99326.84;;;19.29;57.93
10474;BME280;5284;50.446;7.904;2022-07-06T08:52:15;99330.31;;;19.05;57.74
10474;BME280;5284;50.446;7.904;2022-07-06T08:57:19;99340.63;;;19.10;58.48
10474;BME280;5284;50.446;7.904;2022-07-06T09:02:24;99340.97;;;19.07;59.00
10474;BME280;5284;50.446;7.904;2022-07-06T09:07:29;99338.72;;;18.61;61.72
10474;BME280;5284;50.446;7.904;2022-07-06T09:13:01;99335.56;;;19.07;58.80
10474;BME280;5284;50.446;7.904;2022-07-06T09:18:05;99335.00;;;19.45;57.13
10474;BME280;5284;50.446;7.904;2022-07-06T09:23:08;99329.19;;;19.24;56.16
10474;BME280;5284;50.446;7.904;2022-07-06T09:28:40;99325.88;;;19.46;54.46
10474;BME280;5284;50.446;7.904;2022-07-06T09:33:56;99317.38;;;20.52;52.68
10474;BME280;5284;50.446;7.904;2022-07-06T09:39:14;99330.13;;;20.36;51.53
10474;BME280;5284;50.446;7.904;2022-07-06T09:44:22;99325.44;;;20.84;50.34
10474;BME280;5284;50.446;7.904;2022-07-06T09:49:27;99321.16;;;21.51;49.91
10474;BME280;5284;50.446;7.904;2022-07-06T09:54:30;99327.63;;;20.11;52.76
10474;BME280;5284;50.446;7.904;2022-07-06T09:59:35;99332.16;;;19.62;53.91
10474;BME280;5284;50.446;7.904;2022-07-06T10:04:38;99325.53;;;19.65;52.63
10474;BME280;5284;50.446;7.904;2022-07-06T10:09:41;99324.91;;;19.79;54.55
10474;BME280;5284;50.446;7.904;2022-07-06T10:14:46;99328.78;;;19.76;54.57
10474;BME280;5284;50.446;7.904;2022-07-06T10:19:52;99319.28;;;20.20;55.16
10474;BME280;5284;50.446;7.904;2022-07-06T10:24:58;99322.34;;;20.17;51.58
10474;BME280;5284;50.446;7.904;2022-07-06T10:30:02;99327.69;;;20.49;52.99
10474;BME280;5284;50.446;7.904;2022-07-06T10:35:07;99338.38;;;20.50;52.51
10474;BME280;5284;50.446;7.904;2022-07-06T10:40:13;99333.38;;;20.15;52.61
10474;BME280;5284;50.446;7.904;2022-07-06T10:45:51;99333.66;;;19.65;53.10
10474;BME280;5284;50.446;7.904;2022-07-06T10:50:58;99320.88;;;20.69;50.15
10474;BME280;5284;50.446;7.904;2022-07-06T10:56:04;99326.00;;;21.02;49.87
10474;BME280;5284;50.446;7.904;2022-07-06T11:01:17;99325.94;;;21.93;49.15
10474;BME280;5284;50.446;7.904;2022-07-06T11:06:21;99329.69;;;22.66;46.07
10474;BME280;5284;50.446;7.904;2022-07-06T11:11:26;99329.22;;;21.67;46.84
10474;BME280;5284;50.446;7.904;2022-07-06T11:16:32;99322.84;;;22.70;45.18
10474;BME280;5284;50.446;7.904;2022-07-06T11:21:40;99331.66;;;22.58;46.43
10474;BME280;5284;50.446;7.904;2022-07-06T11:26:45;99320.13;;;21.82;46.97
10474;BME280;5284;50.446;7.904;2022-07-06T11:31:51;99318.22;;;21.60;48.27
10474;BME280;5284;50.446;7.904;2022-07-06T11:36:56;99308.84;;;22.07;48.37
10474;BME280;5284;50.446;7.904;2022-07-06T11:41:59;99311.59;;;22.22;46.29
10474;BME280;5284;50.446;7.904;2022-07-06T11:47:05;99303.63;;;22.20;45.78
10474;BME280;5284;50.446;7.904;2022-07-06T11:52:10;99320.84;;;23.22;45.39
10474;BME280;5284;50.446;7.904;2022-07-06T11:57:13;99308.22;;;23.92;43.72
10474;BME280;5284;50.446;7.904;2022-07-06T12:02:17;99300.09;;;23.56;43.38
10474;BME280;5284;50.446;7.904;2022-07-06T12:07:44;99298.31;;;23.49;44.66
10474;BME280;5284;50.446;7.904;2022-07-06T12:12:47;99306.41;;;22.78;44.44
10474;BME280;5284;50.446;7.904;2022-07-06T12:17:51;99303.13;;;22.97;44.44
10474;BME280;5284;50.446;7.904;2022-07-06T12:23:01;99303.41;;;22.59;45.20
10474;BME280;5284;50.446;7.904;2022-07-06T12:28:04;99299.28;;;22.63;45.57
10474;BME280;5284;50.446;7.904;2022-07-06T12:33:12;99298.81;;;22.08;45.49
10474;BME280;5284;50.446;7.904;2022-07-06T12:38:21;99290.78;;;24.14;42.41
10474;BME280;5284;50.446;7.904;2022-07-06T12:43:48;99285.75;;;25.12;40.89
10474;BME280;5284;50.446;7.904;2022-07-06T12:49:11;99286.78;;;25.78;39.10
10474;BME280;5284;50.446;7.904;2022-07-06T12:54:16;99277.53;;;28.32;37.24
10474;BME280;5284;50.446;7.904;2022-07-06T12:59:22;99291.09;;;28.94;37.12
10474;BME280;5284;50.446;7.904;2022-07-06T13:04:27;99296.81;;;27.20;36.56
10474;BME280;5284;50.446;7.904;2022-07-06T13:09:30;99287.91;;;26.03;39.37
10474;BME280;5284;50.446;7.904;2022-07-06T13:14:33;99287.88;;;25.17;39.58
10474;BME280;5284;50.446;7.904;2022-07-06T13:19:39;99285.31;;;24.62;41.20
10474;BME280;5284;50.446;7.904;2022-07-06T13:24:42;99284.00;;;24.03;41.97
10474;BME280;5284;50.446;7.904;2022-07-06T13:29:45;99287.88;;;23.52;43.37
10474;BME280;5284;50.446;7.904;2022-07-06T13:34:49;99279.22;;;22.78;44.23
10474;BME280;5284;50.446;7.904;2022-07-06T13:39:52;99274.59;;;22.79;44.46
10474;BME280;5284;50.446;7.904;2022-07-06T13:44:55;99275.06;;;22.82;44.63
10474;BME280;5284;50.446;7.904;2022-07-06T13:49:59;99262.41;;;22.31;44.53
10474;BME280;5284;50.446;7.904;2022-07-06T13:55:03;99249.53;;;22.11;45.14
10474;BME280;5284;50.446;7.904;2022-07-06T14:00:06;99250.22;;;22.42;45.10
10474;BME280;5284;50.446;7.904;2022-07-06T14:05:11;99245.63;;;22.71;44.20
10474;BME280;5284;50.446;7.904;2022-07-06T14:10:16;99242.94;;;23.07;43.93
10474;BME280;5284;50.446;7.904;2022-07-06T14:15:20;99243.72;;;22.86;44.16
10474;BME280;5284;50.446;7.904;2022-07-06T14:20:24;99233.59;;;22.95;44.14
10474;BME280;5284;50.446;7.904;2022-07-06T14:25:28;99237.09;;;24.14;41.74
10474;BME280;5284;50.446;7.904;2022-07-06T14:30:32;99235.69;;;24.86;41.51
10474;BME280;5284;50.446;7.904;2022-07-06T14:35:37;99227.63;;;25.18;39.76
10474;BME280;5284;50.446;7.904;2022-07-06T14:40:41;99225.66;;;25.06;40.49
10474;BME280;5284;50.446;7.904;2022-07-06T14:45:45;99225.41;;;25.74;39.88
10474;BME280;5284;50.446;7.904;2022-07-06T14:50:49;99231.25;;;27.56;37.80
10474;BME280;5284;50.446;7.904;2022-07-06T14:55:52;99231.72;;;29.22;35.69
10474;BME280;5284;50.446;7.904;2022-07-06T15:00:55;99229.69;;;33.02;32.04
10474;BME280;5284;50.446;7.904;2022-07-06T15:06:01;99221.59;;;32.08;31.65
10474;BME280;5284;50.446;7.904;2022-07-06T15:11:04;99226.53;;;33.36;29.26
10474;BME280;5284;50.446;7.904;2022-07-06T15:16:07;99220.66;;;32.90;30.02
10474;BME280;5284;50.446;7.904;2022-07-06T15:21:11;99220.44;;;33.60;29.36
10474;BME280;5284;50.446;7.904;2022-07-06T15:26:14;99211.81;;;32.33;30.42
10474;BME280;5284;50.446;7.904;2022-07-06T15:31:18;99226.09;;;35.97;27.41
10474;BME280;5284;50.446;7.904;2022-07-06T15:36:25;99220.13;;;34.41;28.54
10474;BME280;5284;50.446;7.904;2022-07-06T15:41:28;99210.41;;;30.29;32.50
10474;BME280;5284;50.446;7.904;2022-07-06T15:46:33;99191.94;;;32.53;30.19
10474;BME280;5284;50.446;7.904;2022-07-06T15:51:38;99201.22;;;35.31;26.80
10474;BME280;5284;50.446;7.904;2022-07-06T15:56:41;99196.53;;;38.36;25.88
10474;BME280;5284;50.446;7.904;2022-07-06T16:01:44;99195.78;;;39.71;24.19
10474;BME280;5284;50.446;7.904;2022-07-06T16:06:56;99192.72;;;37.84;24.91
10474;BME280;5284;50.446;7.904;2022-07-06T16:12:18;99181.88;;;36.41;26.72
10474;BME280;5284;50.446;7.904;2022-07-06T16:17:21;99169.84;;;31.70;30.88
10474;BME280;5284;50.446;7.904;2022-07-06T16:22:29;99165.34;;;34.63;27.92
10474;BME280;5284;50.446;7.904;2022-07-06T16:27:33;99156.50;;;31.79;30.92
10474;BME280;5284;50.446;7.904;2022-07-06T16:32:37;99159.69;;;38.91;24.84
10474;BME280;5284;50.446;7.904;2022-07-06T16:37:42;99159.59;;;41.65;23.32
10474;BME280;5284;50.446;7.904;2022-07-06T16:42:45;99165.78;;;41.40;23.41
10474;BME280;5284;50.446;7.904;2022-07-06T16:47:48;99174.63;;;40.47;24.02
10474;BME280;5284;50.446;7.904;2022-07-06T16:52:56;99164.59;;;41.54;23.68
10474;BME280;5284;50.446;7.904;2022-07-06T16:58:00;99159.06;;;40.10;23.93
10474;BME280;5284;50.446;7.904;2022-07-06T17:03:03;99165.88;;;41.84;23.29
10474;BME280;5284;50.446;7.904;2022-07-06T17:08:07;99162.47;;;41.73;22.93
10474;BME280;5284;50.446;7.904;2022-07-06T17:13:10;99156.75;;;39.43;23.67
10474;BME280;5284;50.446;7.904;2022-07-06T17:18:13;99158.72;;;38.20;25.01
10474;BME280;5284;50.446;7.904;2022-07-06T17:23:17;99143.50;;;34.67;26.88
10474;BME280;5284;50.446;7.904;2022-07-06T17:28:21;99141.03;;;33.13;28.54
10474;BME280;5284;50.446;7.904;2022-07-06T17:33:24;99125.72;;;30.59;31.95
10474;BME280;5284;50.446;7.904;2022-07-06T17:38:30;99121.53;;;28.05;34.46
10474;BME280;5284;50.446;7.904;2022-07-06T17:43:33;99114.25;;;27.25;35.95
10474;BME280;5284;50.446;7.904;2022-07-06T17:48:49;99113.94;;;26.08;37.72
10474;BME280;5284;50.446;7.904;2022-07-06T17:53:56;99113.97;;;25.17;38.44
10474;BME280;5284;50.446;7.904;2022-07-06T17:58:58;99110.66;;;24.62;39.83
10474;BME280;5284;50.446;7.904;2022-07-06T18:04:01;99108.41;;;23.36;41.65
10474;BME280;5284;50.446;7.904;2022-07-06T18:09:05;99117.78;;;22.71;43.44
10474;BME280;5284;50.446;7.904;2022-07-06T18:14:08;99112.53;;;22.20;44.11
10474;BME280;5284;50.446;7.904;2022-07-06T18:19:11;99106.53;;;22.10;44.48
10474;BME280;5284;50.446;7.904;2022-07-06T18:24:15;99108.47;;;21.58;45.46
10474;BME280;5284;50.446;7.904;2022-07-06T18:29:18;99104.09;;;21.20;45.98
10474;BME280;5284;50.446;7.904;2022-07-06T18:34:22;99098.75;;;20.90;46.85
10474;BME280;5284;50.446;7.904;2022-07-06T18:39:32;99098.13;;;20.57;47.39
10474;BME280;5284;50.446;7.904;2022-07-06T18:44:35;99099.28;;;20.32;48.19
10474;BME280;5284;50.446;7.904;2022-07-06T18:49:37;99084.88;;;20.02;49.34
10474;BME280;5284;50.446;7.904;2022-07-06T18:54:42;99090.69;;;19.83;48.90
10474;BME280;5284;50.446;7.904;2022-07-06T18:59:45;99089.38;;;19.63;50.40
10474;BME280;5284;50.446;7.904;2022-07-06T19:04:48;99081.31;;;19.39;50.83
10474;BME280;5284;50.446;7.904;2022-07-06T19:09:52;99088.63;;;19.06;54.43
10474;BME280;5284;50.446;7.904;2022-07-06T19:14:55;99079.00;;;18.80;55.78
10474;BME280;5284;50.446;7.904;2022-07-06T19:19:58;99074.44;;;18.56;56.80
10474;BME280;5284;50.446;7.904;2022-07-06T19:25:04;99091.59;;;18.32;56.52
10474;BME280;5284;50.446;7.904;2022-07-06T19:30:08;99088.31;;;18.12;58.03
10474;BME280;5284;50.446;7.904;2022-07-06T19:35:11;99088.88;;;17.82;60.77
10474;BME280;5284;50.446;7.904;2022-07-06T19:40:15;99094.78;;;17.52;62.90
10474;BME280;5284;50.446;7.904;2022-07-06T19:45:18;99099.56;;;17.33;63.18
10474;BME280;5284;50.446;7.904;2022-07-06T19:50:23;99093.50;;;17.13;65.75
10474;BME280;5284;50.446;7.904;2022-07-06T19:55:30;99094.84;;;16.92;69.21
10474;BME280;5284;50.446;7.904;2022-07-06T20:00:33;99105.72;;;16.83;67.84
10474;BME280;5284;50.446;7.904;2022-07-06T20:05:37;99107.09;;;16.69;70.12
10474;BME280;5284;50.446;7.904;2022-07-06T20:10:41;99102.84;;;16.67;69.05
10474;BME280;5284;50.446;7.904;2022-07-06T20:15:44;99104.47;;;16.60;69.42
10474;BME280;5284;50.446;7.904;2022-07-06T20:20:47;99113.34;;;16.52;69.97
10474;BME280;5284;50.446;7.904;2022-07-06T20:25:51;99107.41;;;16.49;70.89
10474;BME280;5284;50.446;7.904;2022-07-06T20:30:54;99105.97;;;16.37;74.87
10474;BME280;5284;50.446;7.904;2022-07-06T20:35:57;99109.06;;;16.32;76.15
10474;BME280;5284;50.446;7.904;2022-07-06T20:41:01;99103.75;;;16.23;76.89
10474;BME280;5284;50.446;7.904;2022-07-06T20:46:04;99092.97;;;16.23;78.23
10474;BME280;5284;50.446;7.904;2022-07-06T20:51:07;99096.28;;;16.17;78.04
10474;BME280;5284;50.446;7.904;2022-07-06T20:56:11;99098.72;;;16.10;78.21
10474;BME280;5284;50.446;7.904;2022-07-06T21:01:14;99097.19;;;16.08;78.54
10474;BME280;5284;50.446;7.904;2022-07-06T21:06:18;99094.41;;;16.00;79.67
10474;BME280;5284;50.446;7.904;2022-07-06T21:11:22;99100.72;;;16.08;79.96
10474;BME280;5284;50.446;7.904;2022-07-06T21:16:26;99087.03;;;16.02;82.25
10474;BME280;5284;50.446;7.904;2022-07-06T21:21:29;99080.22;;;15.98;84.12
10474;BME280;5284;50.446;7.904;2022-07-06T21:26:34;99087.03;;;16.02;82.85
10474;BME280;5284;50.446;7.904;2022-07-06T21:31:43;99082.88;;;16.07;79.06
10474;BME280;5284;50.446;7.904;2022-07-06T21:36:46;99076.66;;;16.07;80.15
10474;BME280;5284;50.446;7.904;2022-07-06T21:41:50;99078.97;;;16.02;83.52
10474;BME280;5284;50.446;7.904;2022-07-06T21:46:53;99085.34;;;16.01;85.44
10474;BME280;5284;50.446;7.904;2022-07-06T21:51:56;99082.78;;;15.99;86.27
10474;BME280;5284;50.446;7.904;2022-07-06T21:57:00;99076.16;;;15.94;85.42
10474;BME280;5284;50.446;7.904;2022-07-06T22:02:03;99073.00;;;15.81;87.63
10474;BME280;5284;50.446;7.904;2022-07-06T22:07:07;99073.00;;;15.81;87.20
10474;BME280;5284;50.446;7.904;2022-07-06T22:12:12;99075.28;;;15.76;89.92
10474;BME280;5284;50.446;7.904;2022-07-06T22:17:14;99073.91;;;15.72;89.15
10474;BME280;5284;50.446;7.904;2022-07-06T22:22:17;99077.13;;;15.75;84.97
10474;BME280;5284;50.446;7.904;2022-07-06T22:27:21;99072.13;;;15.80;86.02
10474;BME280;5284;50.446;7.904;2022-07-06T22:32:24;99072.44;;;15.77;87.50
10474;BME280;5284;50.446;7.904;2022-07-06T22:37:27;99059.44;;;15.73;88.22
10474;BME280;5284;50.446;7.904;2022-07-06T22:42:31;99059.31;;;15.65;91.61
10474;BME280;5284;50.446;7.904;2022-07-06T22:47:34;99055.41;;;15.59;88.49
10474;BME280;5284;50.446;7.904;2022-07-06T22:52:36;99052.31;;;15.54;89.91
10474;BME280;5284;50.446;7.904;2022-07-06T22:57:41;99046.78;;;15.56;88.87
10474;BME280;5284;50.446;7.904;2022-07-06T23:02:43;99042.69;;;15.52;89.80
10474;BME280;5284;50.446;7.904;2022-07-06T23:07:46;99039.19;;;15.51;91.37
10474;BME280;5284;50.446;7.904;2022-07-06T23:12:50;99030.16;;;15.43;94.43
10474;BME280;5284;50.446;7.904;2022-07-06T23:17:53;99020.44;;;15.32;93.32
10474;BME280;5284;50.446;7.904;2022-07-06T23:22:56;99019.63;;;15.32;93.21
10474;BME280;5284;50.446;7.904;2022-07-06T23:28:01;99021.84;;;15.27;92.83
10474;BME280;5284;50.446;7.904;2022-07-06T23:33:03;99014.94;;;15.25;95.25
10474;BME280;5284;50.446;7.904;2022-07-06T23:38:06;99015.75;;;15.25;94.86
10474;BME280;5284;50.446;7.904;2022-07-06T23:43:10;99014.25;;;15.32;94.65
10474;BME280;5284;50.446;7.904;2022-07-06T23:48:13;99009.84;;;15.31;94.68
10474;BME280;5284;50.446;7.904;2022-07-06T23:53:16;98997.81;;;15.35;95.64
10474;BME280;5284;50.446;7.904;2022-07-06T23:58:21;98987.88;;;15.35;95.42
